Time;durP1;ratioP1;P1;durP2;ratioP2;P2;SDS_P1;SDS_P2;PMS_P1;PMS_P2;Temp;Humidity;BMP_temperature;BMP_pressure;BME280_temperature;BME280_humidity;BME280_pressure;Samples;Min_cycle;Max_cycle;Signal;HPM_P1;HPM_P2
2021/07/05 00:06:33;;;;;;;;;;;;;;;;;;;;;
2021/07/05 00:09:20;;;;;;;8.07;6.82;;;16.10;99.90;;;;;;4898044;29;20058;-91
2021/07/05 00:12:21;;;;;;;;;;;;;;;;;;;;;
2021/07/05 00:14:58;;;;;;;9.55;8.55;;;16.10;99.90;;;;;;4898019;29;20044;-93
2021/07/05 00:41:14;;;;;;;10.05;7.25;;;16.40;99.90;;;;;;4897218;29;20068;-92
2021/07/05 01:27:23;;;;;;;9.00;5.80;;;16.50;99.90;;;;;;4899317;29;20385;-92
2021/07/05 01:30:22;;;;;;;6.32;5.60;;;16.40;99.90;;;;;;4883775;29;20487;-92
2021/07/05 01:33:04;;;;;;;;;;;;;;;;;;;;;
2021/07/05 01:35:34;;;;;;;5.05;4.55;;;16.40;99.90;;;;;;4909709;29;20116;-91
2021/07/05 01:38:05;;;;;;;5.63;3.92;;;16.40;99.90;;;;;;4884931;29;20068;-90
2021/07/05 01:40:51;;;;;;;4.63;3.63;;;16.40;99.90;;;;;;4896367;29;20032;-91
2021/07/05 01:43:26;;;;;;;;;;;;;;;;;;;;;
2021/07/05 01:46:01;;;;;;;4.10;3.63;;;16.30;99.90;;;;;;4923632;29;20017;-91
2021/07/05 01:49:07;;;;;;;4.60;3.97;;;16.20;99.90;;;;;;4906817;29;20063;-92
2021/07/05 01:51:59;;;;;;;5.85;3.85;;;16.20;99.90;;;;;;4905564;29;20036;-93
2021/07/05 01:54:27;;;;;;;4.45;3.38;;;16.10;99.90;;;;;;4922057;29;20017;-93
2021/07/05 01:56:58;;;;;;;5.60;3.80;;;16.10;99.90;;;;;;4906097;29;20128;-92
2021/07/05 01:59:40;;;;;;;4.97;3.90;;;16.20;99.90;;;;;;4907216;29;20017;-93
2021/07/05 02:02:09;;;;;;;4.35;3.55;;;16.30;99.90;;;;;;4906092;29;20061;-91
2021/07/05 02:04:56;;;;;;;4.00;3.50;;;16.30;99.90;;;;;;4906580;29;20017;-91
2021/07/05 02:07:30;;;;;;;5.15;3.90;;;16.30;99.90;;;;;;4906740;29;20061;-91
2021/07/05 02:10:01;;;;;;;5.43;3.83;;;16.30;99.90;;;;;;4906722;29;20068;-93
2021/07/05 02:12:52;;;;;;;4.32;3.65;;;16.30;99.90;;;;;;4906344;29;20127;-93
2021/07/05 02:21:19;;;;;;;4.72;3.95;;;16.10;99.90;;;;;;4901672;29;20044;-91
2021/07/05 02:23:56;;;;;;;4.95;3.97;;;16.00;99.90;;;;;;4884963;29;20037;-93
2021/07/05 02:26:35;;;;;;;4.95;4.22;;;16.10;99.90;;;;;;4881016;29;20293;-93
2021/07/05 02:39:22;;;;;;;6.28;4.88;;;16.30;99.90;;;;;;4899066;29;20060;-90
2021/07/05 02:45:41;;;;;;;5.72;4.63;;;16.30;99.90;;;;;;4897339;29;20127;-92
2021/07/05 02:51:57;;;;;;;;;;;;;;;;;;;;;
2021/07/05 02:58:28;;;;;;;;;;;;;;;;;;;;;
2021/07/05 03:04:18;;;;;;;6.13;4.85;;;16.20;99.90;;;;;;4859889;29;20139;-93
2021/07/05 03:09:25;;;;;;;6.38;5.20;;;16.10;99.90;;;;;;949233;23;20421;-94
2021/07/05 03:11:51;;;;;;;6.95;5.55;;;16.10;99.90;;;;;;4838452;29;20329;-92
2021/07/05 03:14:17;;;;;;;7.13;6.43;;;16.20;99.90;;;;;;4809268;29;20066;-91
2021/07/05 03:16:42;;;;;;;8.35;7.55;;;16.20;99.90;;;;;;4809051;29;20485;-92
2021/07/05 03:19:08;;;;;;;6.82;6.10;;;16.10;99.90;;;;;;4809406;29;20049;-91
2021/07/05 03:21:33;;;;;;;7.45;5.82;;;16.10;99.90;;;;;;4809762;29;20034;-92
2021/07/05 03:23:59;;;;;;;7.57;6.35;;;16.10;99.90;;;;;;4809705;29;20095;-91
2021/07/05 03:26:25;;;;;;;6.93;6.22;;;16.10;99.90;;;;;;4808994;29;20042;-91
2021/07/05 03:28:50;;;;;;;5.95;5.35;;;16.10;99.90;;;;;;4809302;29;20496;-92
2021/07/05 03:31:18;;;;;;;8.07;6.50;;;16.10;99.90;;;;;;4809577;29;20035;-93
2021/07/05 03:33:48;;;;;;;6.32;5.30;;;16.20;99.90;;;;;;4809579;29;20035;-92
2021/07/05 03:36:13;;;;;;;8.00;7.20;;;16.20;99.90;;;;;;4809712;29;20035;-92
2021/07/05 03:38:39;;;;;;;9.25;7.25;;;16.20;99.90;;;;;;4809398;29;20041;-92
2021/07/05 03:41:05;;;;;;;8.13;7.32;;;16.20;99.90;;;;;;4809399;29;20035;-91
2021/07/05 03:43:32;;;;;;;8.70;7.47;;;16.20;99.90;;;;;;4809062;29;20039;-92
2021/07/05 03:45:57;;;;;;;8.10;7.28;;;16.20;99.90;;;;;;4808939;29;20031;-92
2021/07/05 03:48:23;;;;;;;7.63;6.82;;;16.20;99.90;;;;;;4809154;29;20043;-93
2021/07/05 03:50:49;;;;;;;12.02;8.02;;;16.20;99.90;;;;;;4809313;29;20394;-93
2021/07/05 03:53:14;;;;;;;10.23;9.02;;;16.20;99.90;;;;;;4809059;29;20117;-92
2021/07/05 03:55:40;;;;;;;12.82;9.43;;;16.20;99.90;;;;;;4811461;29;20038;-92
2021/07/05 03:58:06;;;;;;;10.20;7.18;;;16.10;99.90;;;;;;4809128;29;20442;-92
2021/07/05 04:00:36;;;;;;;10.18;8.35;;;16.10;99.90;;;;;;4809310;29;20141;-93
2021/07/05 04:03:01;;;;;;;12.63;7.82;;;16.00;99.90;;;;;;4810046;29;20435;-94
2021/07/05 04:05:28;;;;;;;10.18;7.22;;;15.90;99.90;;;;;;4809155;29;20031;-94
2021/07/05 04:07:55;;;;;;;7.68;5.97;;;15.80;99.90;;;;;;4811239;29;20043;-91
2021/07/05 04:10:21;;;;;;;8.73;5.85;;;15.70;99.90;;;;;;4810545;29;20478;-93
2021/07/05 04:12:50;;;;;;;7.50;4.68;;;15.70;99.90;;;;;;4812180;29;20176;-93
2021/07/05 04:15:16;;;;;;;5.13;4.00;;;15.50;99.90;;;;;;4815257;29;20035;-92
2021/07/05 04:17:42;;;;;;;5.85;3.30;;;15.30;99.90;;;;;;4809668;29;20043;-93
2021/07/05 04:20:16;;;;;;;4.28;2.60;;;15.10;99.90;;;;;;4811943;29;20027;-93
2021/07/05 04:22:59;;;;;;;3.10;1.90;;;14.90;99.90;;;;;;4813782;29;20034;-94
2021/07/05 04:25:25;;;;;;;;;;;14.80;99.90;;;;;;4809159;29;20034;-93
2021/07/05 04:27:56;;;;;;;3.15;1.67;;;14.70;99.90;;;;;;4810422;29;20364;-94
2021/07/05 04:30:26;;;;;;;2.88;1.70;;;14.60;99.90;;;;;;4813987;29;20046;-93
2021/07/05 04:36:54;;;;;;;3.22;1.80;;;14.50;99.90;;;;;;4829951;29;20049;-94
2021/07/05 04:39:20;;;;;;;2.92;1.38;;;14.50;99.90;;;;;;4840816;29;20140;-89
2021/07/05 04:41:47;;;;;;;2.03;1.48;;;14.50;99.90;;;;;;4827308;29;20554;-89
2021/07/05 04:44:13;;;;;;;3.45;1.73;;;14.50;99.90;;;;;;4827244;29;20043;-89
2021/07/05 04:46:46;;;;;;;3.38;1.55;;;14.50;99.90;;;;;;4812290;29;20053;-90
2021/07/05 04:49:17;;;;;;;4.50;1.85;;;14.50;99.90;;;;;;4828310;29;20096;-89
2021/07/05 04:51:43;;;;;;;2.97;1.70;;;14.50;99.90;;;;;;4826955;29;20039;-89
2021/07/05 04:54:09;;;;;;;3.80;1.85;;;14.40;99.90;;;;;;4827747;29;20043;-90
2021/07/05 04:56:37;;;;;;;3.40;2.10;;;14.50;99.90;;;;;;4827805;29;20094;-90
2021/07/05 04:59:05;;;;;;;3.15;1.73;;;14.40;99.90;;;;;;4826427;29;20049;-90
2021/07/05 05:01:31;;;;;;;2.88;1.77;;;14.50;99.90;;;;;;4827068;29;20035;-90
2021/07/05 05:04:00;;;;;;;4.55;2.30;;;14.50;99.90;;;;;;4826943;29;20058;-90
2021/07/05 05:07:03;;;;;;;3.65;2.10;;;14.60;99.90;;;;;;4827238;29;20103;-89
2021/07/05 05:09:29;;;;;;;3.92;2.15;;;14.50;99.90;;;;;;4838147;29;20055;-90
2021/07/05 05:11:55;;;;;;;4.70;2.08;;;14.50;99.90;;;;;;4835022;29;20037;-89
2021/07/05 05:14:21;;;;;;;4.53;2.42;;;14.60;99.90;;;;;;4827501;29;20554;-89
2021/07/05 05:16:48;;;;;;;5.22;2.85;;;14.60;99.90;;;;;;4826451;29;20137;-90
2021/07/05 05:19:15;;;;;;;4.10;2.35;;;14.60;99.90;;;;;;4826156;29;20128;-90
2021/07/05 05:21:40;;;;;;;4.88;2.38;;;14.60;99.90;;;;;;4826559;29;20428;-89
2021/07/05 05:24:10;;;;;;;3.65;2.40;;;14.60;99.90;;;;;;4826761;29;20038;-89
2021/07/05 05:26:36;;;;;;;5.55;2.80;;;14.60;99.90;;;;;;4827598;29;20049;-90
2021/07/05 05:29:02;;;;;;;4.18;2.70;;;14.70;99.90;;;;;;4827650;29;20046;-90
2021/07/05 05:31:30;;;;;;;4.85;2.67;;;14.70;99.90;;;;;;4826388;29;20042;-90
2021/07/05 05:33:59;;;;;;;3.78;2.30;;;14.60;99.90;;;;;;4827316;29;20469;-90
2021/07/05 05:36:25;;;;;;;5.28;3.05;;;14.70;99.90;;;;;;4826435;29;20121;-90
2021/07/05 05:38:53;;;;;;;4.85;2.78;;;14.70;99.90;;;;;;4826610;29;20520;-90
2021/07/05 05:41:19;;;;;;;6.25;3.28;;;14.70;99.90;;;;;;4826415;29;20041;-90
2021/07/05 05:43:44;;;;;;;6.22;3.50;;;14.70;99.90;;;;;;4827410;29;20039;-90
2021/07/05 05:46:16;;;;;;;5.75;3.22;;;14.70;99.90;;;;;;4826146;29;20091;-90
2021/07/05 05:48:49;;;;;;;4.78;3.10;;;14.70;99.90;;;;;;4827375;29;20045;-91
2021/07/05 05:51:15;;;;;;;5.10;3.17;;;14.70;99.90;;;;;;4826335;29;20135;-91
2021/07/05 05:53:41;;;;;;;6.35;3.78;;;14.70;99.90;;;;;;4825964;29;20459;-90
2021/07/05 05:56:14;;;;;;;5.75;3.38;;;14.70;99.90;;;;;;4831389;29;20075;-89
2021/07/05 05:58:42;;;;;;;9.07;3.72;;;14.70;99.90;;;;;;4849114;29;20030;-91
2021/07/05 06:01:08;;;;;;;5.15;3.38;;;14.70;99.90;;;;;;4844304;29;20038;-90
2021/07/05 06:03:34;;;;;;;5.53;3.55;;;14.70;99.90;;;;;;4827736;29;20480;-91
2021/07/05 06:06:04;;;;;;;6.47;4.28;;;14.80;99.90;;;;;;4826414;29;20125;-90
2021/07/05 06:08:30;;;;;;;6.05;3.90;;;14.80;99.90;;;;;;4826061;29;20050;-90
2021/07/05 06:10:59;;;;;;;8.27;4.45;;;14.80;99.90;;;;;;4825883;29;20045;-90
2021/07/05 06:13:41;;;;;;;9.30;4.18;;;14.80;99.90;;;;;;4826649;29;20395;-91
2021/07/05 06:16:38;;;;;;;6.13;3.83;;;14.90;99.90;;;;;;4827280;29;20495;-90
2021/07/05 06:19:04;;;;;;;6.28;4.38;;;14.90;99.90;;;;;;4818729;29;20034;-91
2021/07/05 06:21:41;;;;;;;6.55;3.97;;;14.90;99.90;;;;;;4826095;29;20065;-91
2021/07/05 06:24:48;;;;;;;7.88;5.05;;;14.90;99.90;;;;;;4825455;29;20035;-91
2021/07/05 06:30:12;;;;;;;6.13;4.30;;;14.90;99.90;;;;;;4827083;29;20042;-91
2021/07/05 06:32:48;;;;;;;;;;;;;;;;;;;;;
2021/07/05 06:35:27;;;;;;;;;;;;;;;;;;;;;
2021/07/05 06:37:57;;;;;;;8.07;4.88;;;15.00;99.90;;;;;;4825944;29;20056;-91
2021/07/05 06:40:29;;;;;;;12.32;5.55;;;15.00;99.90;;;;;;4826664;29;20054;-92
2021/07/05 06:42:57;;;;;;;11.77;5.85;;;15.10;99.90;;;;;;4825818;29;20121;-91
2021/07/05 06:45:52;;;;;;;8.43;5.40;;;15.20;99.90;;;;;;4824834;29;20034;-91
2021/07/05 06:49:34;;;;;;;9.90;5.70;;;15.20;99.90;;;;;;4825423;29;20388;-91
2021/07/05 06:51:57;;;;;;;;;;;;;;;;;;;;;
2021/07/05 06:54:28;;;;;;;10.40;5.75;;;15.30;99.90;;;;;;4825559;29;20045;-91
2021/07/05 06:57:33;;;;;;;8.88;5.60;;;15.30;99.90;;;;;;4810444;29;20108;-92
2021/07/05 07:00:55;;;;;;;;;;;;;;;;;;;;;
2021/07/05 07:07:08;;;;;;;13.57;6.97;;;15.40;99.90;;;;;;4816991;29;20113;-92
2021/07/05 07:10:25;;;;;;;;;;;;;;;;;;;;;
2021/07/05 07:13:23;;;;;;;13.70;7.00;;;15.40;99.90;;;;;;4826285;29;20050;-92
2021/07/05 07:16:39;;;;;;;;;;;;;;;;;;;;;
2021/07/05 07:19:52;;;;;;;12.35;8.05;;;15.60;99.90;;;;;;4828719;29;20129;-91
2021/07/05 07:22:39;;;;;;;;;;;;;;;;;;;;;
2021/07/05 07:32:14;;;;;;;12.32;7.75;;;16.00;99.90;;;;;;4827895;29;20050;-91
2021/07/05 07:39:11;;;;;;;14.25;7.75;;;16.20;99.90;;;;;;4822151;29;20105;-92
2021/07/05 08:22:59;;;;;;;12.68;7.38;;;17.10;99.90;;;;;;4873186;27;7349598;-90
2021/07/05 08:25:26;;;;;;;17.60;7.95;;;17.00;99.90;;;;;;5093325;28;20036;-92
2021/07/05 08:27:54;;;;;;;12.38;7.15;;;17.00;99.90;;;;;;5093718;28;20028;-91
2021/07/05 08:30:22;;;;;;;12.85;7.25;;;17.00;99.90;;;;;;5093625;28;20034;-91
2021/07/05 08:32:54;;;;;;;13.02;6.78;;;17.00;99.90;;;;;;5097457;28;20042;-90
2021/07/05 08:35:21;;;;;;;12.52;7.07;;;17.10;99.90;;;;;;5095510;28;20027;-90
2021/07/05 08:38:05;;;;;;;11.55;6.10;;;17.20;99.90;;;;;;5094418;28;20131;-91
2021/07/05 08:40:42;;;;;;;11.05;5.57;;;17.30;99.90;;;;;;5091253;28;20024;-91
2021/07/05 08:43:08;;;;;;;11.02;6.40;;;17.50;99.90;;;;;;5093528;28;20127;-91
2021/07/05 08:45:49;;;;;;;;;;;;;;;;;;;;;
2021/07/05 08:48:22;;;;;;;10.70;6.50;;;17.70;99.90;;;;;;5111192;28;20408;-91
2021/07/05 08:50:51;;;;;;;10.50;6.45;;;17.80;99.90;;;;;;5092714;28;20055;-91
2021/07/05 08:53:16;;;;;;;13.77;7.18;;;17.90;99.90;;;;;;5093254;28;20328;-92
2021/07/05 08:55:45;;;;;;;10.88;6.72;;;17.80;99.90;;;;;;5093293;28;20020;-90
2021/07/05 08:58:26;;;;;;;10.70;6.25;;;17.80;99.90;;;;;;5094102;28;20513;-93
2021/07/05 09:00:55;;;;;;;8.48;5.93;;;17.80;99.90;;;;;;5094767;28;20443;-92
2021/07/05 09:03:40;;;;;;;8.55;6.10;;;17.90;99.90;;;;;;5093310;28;20032;-93
2021/07/05 09:06:20;;;;;;;11.27;6.90;;;18.10;99.90;;;;;;5102099;28;20485;-91
2021/07/05 09:09:10;;;;;;;11.07;6.47;;;18.10;99.90;;;;;;5092831;28;20031;-91
2021/07/05 09:11:52;;;;;;;10.02;6.43;;;18.10;99.90;;;;;;5093105;28;20023;-92
2021/07/05 09:14:24;;;;;;;8.38;5.90;;;18.20;99.90;;;;;;5092924;28;20043;-91
2021/07/05 09:16:52;;;;;;;10.50;6.37;;;18.30;99.90;;;;;;5092815;28;20030;-91
2021/07/05 09:19:20;;;;;;;10.77;6.05;;;18.30;99.90;;;;;;5092519;28;20020;-90
2021/07/05 09:21:49;;;;;;;11.25;6.30;;;18.30;99.90;;;;;;5092066;28;20565;-89
2021/07/05 09:24:24;;;;;;;10.68;7.05;;;18.60;99.90;;;;;;5092978;28;20085;-91
2021/07/05 09:27:09;;;;;;;13.50;7.93;;;18.70;99.90;;;;;;5093258;28;20481;-90
2021/07/05 09:29:37;;;;;;;9.98;6.78;;;18.70;99.90;;;;;;5092330;28;20024;-91
2021/07/05 09:32:11;;;;;;;9.18;6.72;;;18.70;99.90;;;;;;5091961;28;20048;-91
2021/07/05 09:34:39;;;;;;;8.05;6.32;;;18.60;99.90;;;;;;5078626;28;20028;-89
2021/07/05 09:37:26;;;;;;;10.75;6.80;;;18.50;99.90;;;;;;5078464;28;20099;-90
2021/07/05 09:40:04;;;;;;;9.07;6.47;;;18.50;99.90;;;;;;5078678;28;20024;-89
2021/07/05 09:42:50;;;;;;;12.05;6.88;;;18.40;99.90;;;;;;5079014;28;20393;-90
2021/07/05 09:45:22;;;;;;;8.27;5.50;;;18.30;99.90;;;;;;5078715;28;20084;-90
2021/07/05 09:48:16;;;;;;;12.95;6.47;;;18.30;99.90;;;;;;5078747;28;20119;-91
2021/07/05 09:50:42;;;;;;;10.13;6.32;;;18.40;99.90;;;;;;5078936;28;20111;-90
2021/07/05 09:53:34;;;;;;;7.72;5.80;;;18.40;99.90;;;;;;5078269;28;20481;-89
2021/07/05 09:56:26;;;;;;;11.38;5.43;;;18.50;99.90;;;;;;5078338;28;20027;-90
2021/07/05 09:58:55;;;;;;;11.63;6.15;;;18.50;99.90;;;;;;5078633;28;20024;-91
2021/07/05 10:01:39;;;;;;;9.88;5.10;;;18.50;99.90;;;;;;5078254;28;20035;-90
2021/07/05 10:04:36;;;;;;;9.48;5.32;;;18.60;99.90;;;;;;5078129;28;20056;-89
2021/07/05 10:07:05;;;;;;;9.32;5.78;;;18.70;99.90;;;;;;5078751;28;20103;-91
2021/07/05 10:09:42;;;;;;;10.20;5.15;;;18.70;99.90;;;;;;5078234;28;20028;-90
2021/07/05 10:12:29;;;;;;;8.52;5.03;;;18.80;99.90;;;;;;5078545;28;20016;-91
2021/07/05 10:15:08;;;;;;;8.73;5.53;;;18.90;99.90;;;;;;5077717;28;20027;-90
2021/07/05 10:17:43;;;;;;;7.43;4.63;;;19.00;99.90;;;;;;5077803;28;20466;-91
2021/07/05 10:20:59;;;;;;;11.90;5.28;;;19.10;99.90;;;;;;5077861;28;20020;-93
2021/07/05 10:27:20;;;;;;;6.72;4.40;;;19.20;99.90;;;;;;5005831;28;20112;-89
2021/07/05 10:29:48;;;;;;;6.68;4.93;;;19.20;99.90;;;;;;5054028;28;20028;-91
2021/07/05 10:32:15;;;;;;;5.85;4.28;;;19.10;99.90;;;;;;5054236;28;20052;-90
2021/07/05 10:34:41;;;;;;;7.22;4.85;;;19.00;99.90;;;;;;5054385;28;20021;-91
2021/07/05 10:37:13;;;;;;;5.18;4.15;;;18.90;99.90;;;;;;5054395;28;20083;-90
2021/07/05 10:39:40;;;;;;;7.78;4.60;;;18.90;99.90;;;;;;5054665;28;20021;-89
2021/07/05 10:42:38;;;;;;;7.25;4.30;;;18.90;99.90;;;;;;5055179;28;20029;-90
2021/07/05 10:45:11;;;;;;;7.05;4.55;;;19.00;99.90;;;;;;5052739;28;20017;-91
2021/07/05 10:47:48;;;;;;;;;;;19.10;99.90;;;;;;5054559;28;20111;-89
2021/07/05 10:50:37;;;;;;;5.97;3.80;;;19.00;99.90;;;;;;5053873;28;19911;-89
2021/07/05 10:53:04;;;;;;;6.68;4.15;;;19.30;99.90;;;;;;5054044;28;20155;-89
2021/07/05 10:55:40;;;;;;;8.95;4.75;;;19.30;99.90;;;;;;5053771;28;20440;-90
2021/07/05 10:58:17;;;;;;;8.30;4.85;;;19.30;99.90;;;;;;5053326;28;20116;-86
2021/07/05 11:00:46;;;;;;;8.52;4.65;;;19.30;99.90;;;;;;5053647;28;20024;-86
2021/07/05 11:03:40;;;;;;;6.32;4.22;;;19.40;99.90;;;;;;5053958;28;20104;-90
2021/07/05 11:06:10;;;;;;;8.02;4.75;;;19.60;99.90;;;;;;5044816;28;20030;-89
2021/07/05 11:08:43;;;;;;;6.30;4.38;;;19.60;99.90;;;;;;5034363;28;20025;-88
2021/07/05 11:11:15;;;;;;;5.68;3.63;;;19.70;99.90;;;;;;5033529;28;20029;-90
2021/07/05 11:13:44;;;;;;;8.35;4.30;;;19.90;99.90;;;;;;5034849;28;20371;-90
2021/07/05 11:16:10;;;;;;;6.38;4.15;;;20.00;99.90;;;;;;5034310;28;20032;-88
2021/07/05 11:18:39;;;;;;;7.40;4.18;;;20.00;99.90;;;;;;5035418;28;20032;-86
2021/07/05 11:21:05;;;;;;;5.80;4.15;;;20.00;99.90;;;;;;5035688;28;20044;-86
2021/07/05 11:23:53;;;;;;;6.50;4.20;;;20.00;99.90;;;;;;5056562;28;20025;-87
2021/07/05 11:26:19;;;;;;;6.80;4.38;;;19.90;99.90;;;;;;5074394;28;20054;-85
2021/07/05 11:28:45;;;;;;;6.28;4.80;;;19.80;99.90;;;;;;5055693;28;20070;-86
2021/07/05 11:31:21;;;;;;;9.05;5.90;;;19.60;99.90;;;;;;5056754;28;20016;-88
2021/07/05 11:33:49;;;;;;;7.72;4.70;;;19.50;99.90;;;;;;5056452;28;20467;-88
2021/07/05 11:36:20;;;;;;;8.98;4.95;;;19.40;99.90;;;;;;5056969;28;20024;-86
2021/07/05 11:38:59;;;;;;;6.63;4.93;;;19.20;99.90;;;;;;5057006;28;20036;-89
2021/07/05 11:41:28;;;;;;;7.72;4.47;;;18.90;99.90;;;;;;5069120;28;20023;-88
2021/07/05 11:44:12;;;;;;;7.43;4.78;;;18.60;99.90;;;;;;5081009;28;20012;-88
2021/07/05 11:46:39;;;;;;;10.63;5.95;;;18.50;99.90;;;;;;5093925;28;20047;-88
2021/07/05 11:49:14;;;;;;;7.95;6.20;;;18.00;99.90;;;;;;5101417;28;20012;-91
2021/07/05 11:51:50;;;;;;;9.68;6.65;;;17.50;99.90;;;;;;5101085;28;20012;-89
2021/07/05 11:54:19;;;;;;;7.22;5.63;;;17.20;99.90;;;;;;5100050;28;20040;-90
2021/07/05 11:56:53;;;;;;;8.95;5.95;;;17.00;99.90;;;;;;5097309;28;20008;-91
2021/07/05 11:59:21;;;;;;;7.85;5.80;;;17.00;99.90;;;;;;5095832;28;20083;-90
2021/07/05 12:01:53;;;;;;;9.27;5.93;;;17.10;99.90;;;;;;5097714;28;20032;-87
2021/07/05 12:04:19;;;;;;;7.63;5.50;;;17.40;99.90;;;;;;5096246;28;20030;-89
2021/07/05 12:06:49;;;;;;;7.18;5.60;;;17.70;99.90;;;;;;5097717;28;20060;-92
2021/07/05 12:09:16;;;;;;;9.23;6.15;;;18.10;99.90;;;;;;5098160;28;20076;-90
2021/07/05 12:11:44;;;;;;;7.57;5.85;;;18.30;99.90;;;;;;5091658;28;20178;-90
2021/07/05 12:14:22;;;;;;;8.75;5.18;;;18.40;99.90;;;;;;5098158;28;20103;-90
2021/07/05 12:17:02;;;;;;;8.50;5.20;;;18.70;99.90;;;;;;5077207;28;20036;-92
2021/07/05 12:19:30;;;;;;;5.20;4.43;;;19.10;99.90;;;;;;5076678;28;20020;-91
2021/07/05 12:22:02;;;;;;;5.25;4.47;;;19.30;99.90;;;;;;5079022;28;20043;-90
2021/07/05 12:24:37;;;;;;;7.45;4.97;;;19.40;99.90;;;;;;5078277;28;20048;-92
2021/07/05 12:27:11;;;;;;;6.25;4.18;;;19.40;99.90;;;;;;5075998;28;20028;-90
2021/07/05 12:29:43;;;;;;;6.22;4.00;;;19.40;99.90;;;;;;5074969;28;20066;-87
2021/07/05 12:32:15;;;;;;;4.50;3.53;;;19.50;99.90;;;;;;5068660;28;20466;-88
2021/07/05 12:34:42;;;;;;;7.47;3.93;;;19.60;99.90;;;;;;5072360;28;20046;-87
2021/07/05 12:37:19;;;;;;;6.05;4.22;;;19.90;99.90;;;;;;5072915;28;20114;-88
2021/07/05 12:40:10;;;;;;;7.38;3.92;;;20.10;99.90;;;;;;5072306;28;20027;-87
2021/07/05 12:42:56;;;;;;;6.90;3.90;;;20.30;99.90;;;;;;5058390;28;20489;-88
2021/07/05 12:45:36;;;;;;;6.93;3.60;;;20.30;99.90;;;;;;5068911;28;20564;-88
2021/07/05 12:48:01;;;;;;;5.97;3.67;;;20.20;99.90;;;;;;5071749;28;20361;-87
2021/07/05 12:50:27;;;;;;;5.72;3.42;;;20.10;99.90;;;;;;5070807;28;20024;-88
2021/07/05 12:53:03;;;;;;;4.97;3.15;;;20.20;99.90;;;;;;5072197;28;20802;-87
2021/07/05 12:55:31;;;;;;;5.35;3.00;;;20.40;99.90;;;;;;5089868;28;20038;-88
2021/07/05 12:57:57;;;;;;;6.07;3.80;;;20.40;99.90;;;;;;5091741;28;20024;-88
2021/07/05 13:00:26;;;;;;;4.80;2.95;;;20.50;99.90;;;;;;5072673;28;20090;-88
2021/07/05 13:02:52;;;;;;;5.63;3.30;;;20.60;99.90;;;;;;5072955;28;20051;-89
2021/07/05 13:05:23;;;;;;;5.78;3.13;;;20.50;99.90;;;;;;5072592;28;20020;-88
2021/07/05 13:07:58;;;;;;;3.88;2.10;;;20.50;99.90;;;;;;5095311;28;20027;-91
2021/07/05 13:10:28;;;;;;;4.53;1.70;;;20.40;99.90;;;;;;5081522;28;20101;-90
2021/07/05 13:13:02;;;;;;;3.42;1.58;;;20.40;99.90;;;;;;5092598;28;20035;-91
2021/07/05 13:15:36;;;;;;;3.13;1.73;;;20.40;99.90;;;;;;5074013;28;20124;-90
2021/07/05 13:18:18;;;;;;;3.67;1.52;;;20.90;99.90;;;;;;4934356;28;20087;-88
2021/07/05 13:20:49;;;;;;;2.30;1.07;;;21.40;99.90;;;;;;4946163;28;20024;-92
2021/07/05 13:23:15;;;;;;;2.35;0.98;;;21.90;99.90;;;;;;5040276;28;20295;-91
2021/07/05 13:25:49;;;;;;;1.65;0.98;;;22.50;99.90;;;;;;5056482;28;20024;-90
2021/07/05 13:28:16;;;;;;;1.83;1.30;;;22.70;99.90;;;;;;5051781;28;20533;-91
2021/07/05 13:30:42;;;;;;;3.00;1.20;;;22.70;99.90;;;;;;5048871;28;20054;-90
2021/07/05 13:33:09;;;;;;;3.28;1.30;;;22.60;99.90;;;;;;5051974;28;20033;-90
2021/07/05 13:35:35;;;;;;;3.22;1.17;;;22.50;99.90;;;;;;5051304;28;20036;-87
2021/07/05 13:38:11;;;;;;;2.40;1.00;;;22.20;99.90;;;;;;5037778;28;20031;-89
2021/07/05 13:40:37;;;;;;;2.13;0.80;;;22.10;99.90;;;;;;5051284;28;20036;-89
2021/07/05 13:43:05;;;;;;;2.53;1.00;;;22.00;99.90;;;;;;5052752;28;20064;-89
2021/07/05 13:45:42;;;;;;;1.98;0.90;;;22.00;99.90;;;;;;5056760;28;20024;-90
2021/07/05 13:48:14;;;;;;;3.03;1.30;;;21.80;99.90;;;;;;5060879;28;20023;-92
2021/07/05 13:50:48;;;;;;;2.83;0.90;;;21.80;99.90;;;;;;5053069;28;20017;-89
2021/07/05 13:53:21;;;;;;;2.63;1.10;;;22.10;99.90;;;;;;5074509;28;20549;-89
2021/07/05 13:56:23;;;;;;;3.85;1.20;;;22.40;99.90;;;;;;5054795;28;20029;-88
2021/07/05 13:58:51;;;;;;;1.40;0.90;;;22.40;99.90;;;;;;5030879;28;20414;-88
2021/07/05 14:01:24;;;;;;;1.40;0.82;;;22.40;99.90;;;;;;5071286;28;20020;-89
2021/07/05 14:03:50;;;;;;;4.40;1.20;;;22.40;99.90;;;;;;5047957;28;20053;-88
2021/07/05 14:06:18;;;;;;;3.67;1.00;;;22.30;99.90;;;;;;5040558;28;20683;-88
2021/07/05 14:08:49;;;;;;;2.28;0.82;;;21.90;99.90;;;;;;5069012;28;20638;-88
2021/07/05 14:11:16;;;;;;;2.63;0.82;;;22.00;99.90;;;;;;5052451;28;20044;-90
2021/07/05 14:13:43;;;;;;;2.55;0.98;;;22.00;99.90;;;;;;5050217;28;20475;-90
2021/07/05 14:16:11;;;;;;;3.53;1.20;;;22.00;99.90;;;;;;5052020;28;20025;-87
2021/07/05 14:18:41;;;;;;;1.70;0.88;;;21.90;99.90;;;;;;5053035;28;20025;-88
2021/07/05 14:21:09;;;;;;;1.60;1.10;;;21.80;99.90;;;;;;5047903;28;20085;-87
2021/07/05 14:23:35;;;;;;;3.60;1.20;;;22.20;99.90;;;;;;5049907;28;20099;-89
2021/07/05 14:26:02;;;;;;;2.78;1.17;;;22.30;99.90;;;;;;5053014;28;20063;-88
2021/07/05 14:28:28;;;;;;;2.67;1.33;;;22.40;99.90;;;;;;5045355;28;20367;-88
2021/07/05 14:30:56;;;;;;;2.15;1.00;;;22.40;99.90;;;;;;5051191;28;20028;-90
2021/07/05 14:33:23;;;;;;;2.15;1.25;;;22.50;99.90;;;;;;5066322;28;20024;-89
2021/07/05 14:35:49;;;;;;;3.50;1.40;;;22.70;99.90;;;;;;5058750;28;20024;-88
2021/07/05 14:38:15;;;;;;;2.72;1.30;;;22.90;99.90;;;;;;5065510;28;20112;-88
2021/07/05 14:40:42;;;;;;;4.85;1.40;;;23.20;99.90;;;;;;5057663;28;20132;-91
2021/07/05 14:43:09;;;;;;;3.47;1.67;;;23.40;99.90;;;;;;5080772;28;20033;-88
2021/07/05 14:45:35;;;;;;;2.45;1.48;;;23.20;99.90;;;;;;5065419;28;20032;-89
2021/07/05 14:48:01;;;;;;;3.17;1.58;;;23.40;99.90;;;;;;5071662;28;20036;-88
2021/07/05 14:50:30;;;;;;;2.47;1.25;;;23.60;99.90;;;;;;5066009;28;20041;-91
2021/07/05 14:52:59;;;;;;;1.52;0.98;;;23.90;99.90;;;;;;5061478;28;20013;-91
2021/07/05 14:55:24;;;;;;;3.58;1.58;;;24.10;99.90;;;;;;5050452;28;20029;-90
2021/07/05 14:57:51;;;;;;;2.70;1.45;;;24.20;99.90;;;;;;5063496;28;20024;-92
2021/07/05 15:00:20;;;;;;;4.18;1.40;;;23.90;99.90;;;;;;5066324;28;20066;-89
2021/07/05 15:02:46;;;;;;;3.45;1.45;;;23.50;99.90;;;;;;5063812;28;20151;-88
2021/07/05 15:05:13;;;;;;;3.30;1.48;;;23.40;99.90;;;;;;5066892;28;20008;-90
2021/07/05 15:07:39;;;;;;;3.33;1.20;;;23.40;99.90;;;;;;5067621;28;20031;-90
2021/07/05 15:10:07;;;;;;;2.58;1.00;;;23.10;99.90;;;;;;5060563;28;20009;-88
2021/07/05 15:12:35;;;;;;;3.30;1.20;;;22.80;99.90;;;;;;5074074;28;20027;-88
2021/07/05 15:15:00;;;;;;;4.07;1.50;;;22.50;99.90;;;;;;5058590;28;20053;-86
2021/07/05 15:17:27;;;;;;;4.10;1.60;;;22.20;99.90;;;;;;5082690;28;20173;-88
2021/07/05 15:19:53;;;;;;;3.65;1.50;;;22.00;99.90;;;;;;5083202;28;20063;-89
2021/07/05 15:22:19;;;;;;;2.70;1.40;;;21.80;99.90;;;;;;5080957;28;20041;-91
2021/07/05 15:24:44;;;;;;;4.13;1.55;;;21.70;99.90;;;;;;5081533;28;20025;-88
2021/07/05 15:27:10;;;;;;;3.90;1.83;;;21.80;99.90;;;;;;5079886;28;20032;-88
2021/07/05 15:29:36;;;;;;;4.80;2.15;;;21.70;99.90;;;;;;5083266;28;20040;-87
2021/07/05 15:32:04;;;;;;;3.70;1.63;;;21.50;99.90;;;;;;5055706;28;20024;-86
2021/07/05 15:34:30;;;;;;;3.15;1.77;;;21.50;99.90;;;;;;5077088;28;20016;-89
2021/07/05 15:36:56;;;;;;;4.65;1.83;;;21.40;99.90;;;;;;5056061;28;20047;-88
2021/07/05 15:39:24;;;;;;;3.67;1.73;;;21.40;99.90;;;;;;5057256;28;20059;-90
2021/07/05 15:41:50;;;;;;;5.30;2.08;;;21.50;99.90;;;;;;5058257;28;20044;-91
2021/07/05 15:44:16;;;;;;;3.63;2.03;;;21.50;99.90;;;;;;5074401;28;20029;-89
2021/07/05 15:46:43;;;;;;;5.75;2.40;;;21.70;99.90;;;;;;5058458;28;20043;-85
2021/07/05 15:49:08;;;;;;;6.53;2.47;;;21.80;99.90;;;;;;5075858;28;20076;-86
2021/07/05 15:51:34;;;;;;;4.32;2.47;;;21.60;99.90;;;;;;5081233;28;20071;-89
2021/07/05 15:54:00;;;;;;;3.53;2.30;;;21.50;99.90;;;;;;5055578;28;20024;-87
2021/07/05 15:56:25;;;;;;;7.97;2.80;;;21.50;99.90;;;;;;5069315;28;20382;-88
2021/07/05 15:58:51;;;;;;;4.55;2.55;;;21.60;99.90;;;;;;5049189;28;20116;-90
2021/07/05 16:01:17;;;;;;;4.30;2.55;;;21.60;99.90;;;;;;5070443;28;20020;-90
2021/07/05 16:03:43;;;;;;;5.43;2.88;;;21.80;99.90;;;;;;5051686;28;20054;-92
2021/07/05 16:06:08;;;;;;;4.72;2.42;;;21.70;99.90;;;;;;5051045;28;20009;-90
2021/07/05 16:08:34;;;;;;;4.43;2.40;;;21.60;99.90;;;;;;5051779;28;20033;-90
2021/07/05 16:11:00;;;;;;;4.93;2.55;;;21.50;99.90;;;;;;5053220;28;20043;-90
2021/07/05 16:13:26;;;;;;;3.53;2.17;;;21.60;99.90;;;;;;5054101;28;20096;-91
2021/07/05 16:15:53;;;;;;;3.33;2.17;;;21.60;99.90;;;;;;5053418;28;20035;-91
2021/07/05 16:18:21;;;;;;;5.90;2.58;;;21.60;99.90;;;;;;5052229;28;20039;-89
2021/07/05 16:20:49;;;;;;;5.03;2.95;;;21.60;99.90;;;;;;5050333;28;20016;-88
2021/07/05 16:23:14;;;;;;;5.18;2.70;;;21.50;99.90;;;;;;5046526;28;20055;-86
2021/07/05 16:25:41;;;;;;;6.10;2.63;;;21.50;99.90;;;;;;5047622;28;20051;-89